Nueces — WDC2624 — position and weather

sailwx.info

Track history (hours):
 
Tides and Currents Weather Stations Pressure Air Temp Water Temp Dewpoint Dewpoint Depression Visibility Wind Speed Wind Dir Waves Ship Positions

Nueces

Owner: Kirby Inland Marine LP, Houston, TX. More information available from US FCC via Universal Licensing System and Coast Guard Vessel Documentation Center.

Last reported at 2017-Oct-19 22:43 UTC. Time now 2017-Oct-20 05:06 UTC.
Position N 29°30' W 094°52'.

Length 101 m; draft 2.9 m.

Type: . MMSI: 366995720.

Date/timePositionNaut miles runAvg speedWind from/ knotsBaromVisibWave heightAir tempDewpointWater temp
2017-Oct-19 22:43N 29°30' W 094°52'1 4.8
2017-Oct-19 22:30N 29°31' W 094°53'2 4.8
2017-Oct-19 22:00N 29°33' W 094°55'3 5.4
2017-Oct-19 21:30N 29°35' W 094°56'3 5.1
2017-Oct-19 21:00N 29°37' W 094°58'3 5.4
2017-Oct-19 20:30N 29°40' W 094°59'3 5.1
2017-Oct-19 20:00N 29°42' W 095°00'3 4.5
2017-Oct-19 19:27N 29°44' W 095°02'4 1.3
2017-Oct-19 16:34N 29°46' W 095°06'2 0.2
2017-Oct-19 06:41N 29°46' W 095°04'1 3.8
2017-Oct-19 06:25N 29°46' W 095°05'0 0.5
2017-Oct-19 05:34N 29°45' W 095°06'0 0.0
2017-Oct-19 04:49N 29°45' W 095°06'0 1.0
2017-Oct-19 04:30N 29°46' W 095°05'1 0.1
2017-Oct-18 22:16N 29°46' W 095°05'3 0.4
2017-Oct-18 13:56N 29°44' W 095°02'2 5.4
2017-Oct-18 13:30N 29°42' W 095°00'3 6.3
2017-Oct-18 13:01N 29°39' W 094°58'3 6.6
2017-Oct-18 12:31N 29°36' W 094°57'3 6.2
2017-Oct-18 12:00N 29°34' W 094°55'3 6.4
2017-Oct-18 11:30N 29°31' W 094°53'  
2017-Oct-13 08:37N 29°31' W 094°53'1 6.1
2017-Oct-13 08:30N 29°32' W 094°53'3 6.2
2017-Oct-13 08:00N 29°34' W 094°55'3 6.3
2017-Oct-13 07:30N 29°37' W 094°57'3 6.4
2017-Oct-13 07:00N 29°40' W 094°58'3 5.9
2017-Oct-13 06:30N 29°42' W 095°01'3 5.5
2017-Oct-13 06:00N 29°44' W 095°03'3 2.4
2017-Oct-13 04:48N 29°45' W 095°06'2 1.2
2017-Oct-13 03:19N 29°47' W 095°05'1 4.5
2017-Oct-13 02:59N 29°45' W 095°04'3 6.2
2017-Oct-13 02:30N 29°44' W 095°01'2 3.2
2017-Oct-13 02:00N 29°43' W 095°03'1 0.0
2017-Oct-12 14:43N 29°43' W 095°03'0 0.4
2017-Oct-12 14:29N 29°43' W 095°03'0 0.0
2017-Oct-12 13:59N 29°43' W 095°03'0 0.3
2017-Oct-12 13:27N 29°43' W 095°03'2 3.8
2017-Oct-12 12:59N 29°42' W 095°01'3 5.1
2017-Oct-12 12:30N 29°44' W 095°03'3 1.7
2017-Oct-12 10:24N 29°47' W 095°04'2 1.7
2017-Oct-12 08:57N 29°45' W 095°06'0 0.0
2017-Oct-12 08:30N 29°45' W 095°06'0 0.6
2017-Oct-12 08:00N 29°46' W 095°06'1 0.7
2017-Oct-12 07:10N 29°46' W 095°06'0 0.0
2017-Oct-12 06:31N 29°46' W 095°06'0 2.4
2017-Oct-12 06:25N 29°46' W 095°06'2 3.3
2017-Oct-12 05:56N 29°47' W 095°04'0 0.1
2017-Oct-12 04:35N 29°47' W 095°04'1 5.8
2017-Oct-12 04:29N 29°46' W 095°05'2 3.7
2017-Oct-12 04:01N 29°45' W 095°06'0 0.1
2017-Oct-12 03:19N 29°45' W 095°06'0 0.2
2017-Oct-12 02:49N 29°45' W 095°06'1 1.3
2017-Oct-12 02:11N 29°46' W 095°06'0 1.8
2017-Oct-12 01:59N 29°46' W 095°05'1 1.2
2017-Oct-12 01:12N 29°46' W 095°07'1 3.5
2017-Oct-12 01:00N 29°45' W 095°06'2 3.3
2017-Oct-12 00:28N 29°47' W 095°05'1 0.2
2017-Oct-11 21:17N 29°46' W 095°05'1 0.3
2017-Oct-11 18:14N 29°45' W 095°04'1 4.6
2017-Oct-11 18:00N 29°44' W 095°03'2 4.6
2017-Oct-11 17:30N 29°43' W 095°01'2 4.5
2017-Oct-11 17:00N 29°42' W 094°59'7 0.3
2017-Oct-10 15:48N 29°45' W 095°06'1 2.5
2017-Oct-10 15:29N 29°45' W 095°06'2 3.6
2017-Oct-10 14:57N 29°45' W 095°04'4 4.3
2017-Oct-10 14:00N 29°42' W 095°00'2 4.7
2017-Oct-10 13:30N 29°40' W 094°58'3 5.1
2017-Oct-10 12:57N 29°37' W 094°57'2 5.0
2017-Oct-10 12:30N 29°35' W 094°56'3 5.2
2017-Oct-10 12:00N 29°33' W 094°55'3 5.0
2017-Oct-10 11:30N 29°31' W 094°53'  
Track history (hours):
 
Tides and Currents Weather Stations Pressure Air Temp Water Temp Dewpoint Dewpoint Depression Visibility Wind Speed Wind Dir Waves Ship Positions

Nueces

Owner: Kirby Inland Marine LP, Houston, TX. More information available from US FCC via Universal Licensing System and Coast Guard Vessel Documentation Center.

Last reported at 2017-Oct-19 22:43 UTC. Time now 2017-Oct-20 05:06 UTC.
Position N 29°30' W 094°52'.

Length 101 m; draft 2.9 m.

Type: . MMSI: 366995720.

Date/timePositionNaut miles runAvg speedWind from/ knotsBaromVisibWave heightAir tempDewpointWater temp
2017-Oct-19 22:43N 29°30' W 094°52'1 4.8
2017-Oct-19 22:30N 29°31' W 094°53'2 4.8
2017-Oct-19 22:00N 29°33' W 094°55'3 5.4
2017-Oct-19 21:30N 29°35' W 094°56'3 5.1
2017-Oct-19 21:00N 29°37' W 094°58'3 5.4
2017-Oct-19 20:30N 29°40' W 094°59'3 5.1
2017-Oct-19 20:00N 29°42' W 095°00'3 4.5
2017-Oct-19 19:27N 29°44' W 095°02'4 1.3
2017-Oct-19 16:34N 29°46' W 095°06'2 0.2
2017-Oct-19 06:41N 29°46' W 095°04'1 3.8
2017-Oct-19 06:25N 29°46' W 095°05'0 0.5
2017-Oct-19 05:34N 29°45' W 095°06'0 0.0
2017-Oct-19 04:49N 29°45' W 095°06'0 1.0
2017-Oct-19 04:30N 29°46' W 095°05'1 0.1
2017-Oct-18 22:16N 29°46' W 095°05'3 0.4
2017-Oct-18 13:56N 29°44' W 095°02'2 5.4
2017-Oct-18 13:30N 29°42' W 095°00'3 6.3
2017-Oct-18 13:01N 29°39' W 094°58'3 6.6
2017-Oct-18 12:31N 29°36' W 094°57'3 6.2
2017-Oct-18 12:00N 29°34' W 094°55'3 6.4
2017-Oct-18 11:30N 29°31' W 094°53'  
2017-Oct-13 08:37N 29°31' W 094°53'1 6.1
2017-Oct-13 08:30N 29°32' W 094°53'3 6.2
2017-Oct-13 08:00N 29°34' W 094°55'3 6.3
2017-Oct-13 07:30N 29°37' W 094°57'3 6.4
2017-Oct-13 07:00N 29°40' W 094°58'3 5.9
2017-Oct-13 06:30N 29°42' W 095°01'3 5.5
2017-Oct-13 06:00N 29°44' W 095°03'3 2.4
2017-Oct-13 04:48N 29°45' W 095°06'2 1.2
2017-Oct-13 03:19N 29°47' W 095°05'1 4.5
2017-Oct-13 02:59N 29°45' W 095°04'3 6.2
2017-Oct-13 02:30N 29°44' W 095°01'2 3.2
2017-Oct-13 02:00N 29°43' W 095°03'1 0.0
2017-Oct-12 14:43N 29°43' W 095°03'0 0.4
2017-Oct-12 14:29N 29°43' W 095°03'0 0.0
2017-Oct-12 13:59N 29°43' W 095°03'0 0.3
2017-Oct-12 13:27N 29°43' W 095°03'2 3.8
2017-Oct-12 12:59N 29°42' W 095°01'3 5.1
2017-Oct-12 12:30N 29°44' W 095°03'3 1.7
2017-Oct-12 10:24N 29°47' W 095°04'2 1.7
2017-Oct-12 08:57N 29°45' W 095°06'0 0.0
2017-Oct-12 08:30N 29°45' W 095°06'0 0.6
2017-Oct-12 08:00N 29°46' W 095°06'1 0.7
2017-Oct-12 07:10N 29°46' W 095°06'0 0.0
2017-Oct-12 06:31N 29°46' W 095°06'0 2.4
2017-Oct-12 06:25N 29°46' W 095°06'2 3.3
2017-Oct-12 05:56N 29°47' W 095°04'0 0.1
2017-Oct-12 04:35N 29°47' W 095°04'1 5.8
2017-Oct-12 04:29N 29°46' W 095°05'2 3.7
2017-Oct-12 04:01N 29°45' W 095°06'0 0.1
2017-Oct-12 03:19N 29°45' W 095°06'0 0.2
2017-Oct-12 02:49N 29°45' W 095°06'1 1.3
2017-Oct-12 02:11N 29°46' W 095°06'0 1.8
2017-Oct-12 01:59N 29°46' W 095°05'1 1.2
2017-Oct-12 01:12N 29°46' W 095°07'1 3.5
2017-Oct-12 01:00N 29°45' W 095°06'2 3.3
2017-Oct-12 00:28N 29°47' W 095°05'1 0.2
2017-Oct-11 21:17N 29°46' W 095°05'1 0.3
2017-Oct-11 18:14N 29°45' W 095°04'1 4.6
2017-Oct-11 18:00N 29°44' W 095°03'2 4.6
2017-Oct-11 17:30N 29°43' W 095°01'2 4.5
2017-Oct-11 17:00N 29°42' W 094°59'7 0.3
2017-Oct-10 15:48N 29°45' W 095°06'1 2.5
2017-Oct-10 15:29N 29°45' W 095°06'2 3.6
2017-Oct-10 14:57N 29°45' W 095°04'4 4.3
2017-Oct-10 14:00N 29°42' W 095°00'2 4.7
2017-Oct-10 13:30N 29°40' W 094°58'3 5.1
2017-Oct-10 12:57N 29°37' W 094°57'2 5.0
2017-Oct-10 12:30N 29°35' W 094°56'3 5.2
2017-Oct-10 12:00N 29°33' W 094°55'3 5.0
2017-Oct-10 11:30N 29°31' W 094°53'  

Dump ship's entire track history